West Hampton, New York
Current Conditions -  °F | °C
As of 2:53 PM on Thursday 29 Jan 2015 (Local Time) from KFOK Reporting Station
Clear Clear  
Wind Chill: 26°   Ceiling: Unl
Heat Index: 32°   Visibility: 10mi
Dew Point: 21°   Wind: 6mph
Humidity: 64%   Direction: 170°S
Pressure: 30.21"   Gusts: NA
Location:  40.8273°N, 72.678°W
Report Text: KFOK 291953Z AUTO 17005KT 10SM CLR 00/M06 A3021 RMK AO2 SLP231 T00001061 TSNO
Loading
Personal Weather Stations






























Interactive Weather Map New forecast layout! Learn more

10-Day Weather Forecast

Advertisements
Track Severe Weather on mobile